createdAt,value
2024-03-12T00:00:29.899Z,10.24
2024-03-12T00:02:57.384Z,10.37
2024-03-12T00:05:24.487Z,10.43
2024-03-12T00:07:55.112Z,10.47
2024-03-12T00:10:22.375Z,10.52
2024-03-12T00:12:53.117Z,10.53
2024-03-12T00:15:25.060Z,10.53
2024-03-12T00:17:57.512Z,10.58
2024-03-12T00:20:44.248Z,10.80
2024-03-12T00:23:12.945Z,11.00
2024-03-12T00:25:41.772Z,11.07
2024-03-12T00:28:10.118Z,11.04
2024-03-12T00:30:42.014Z,11.12
2024-03-12T00:33:09.884Z,11.18
2024-03-12T00:35:40.097Z,11.19
2024-03-12T00:38:07.646Z,11.27
2024-03-12T00:40:37.389Z,11.32
2024-03-12T00:43:08.159Z,11.25
2024-03-12T00:45:40.108Z,11.29
2024-03-12T00:48:12.384Z,11.26
2024-03-12T00:50:40.817Z,11.39
2024-03-12T00:53:09.714Z,11.44
2024-03-12T00:55:37.691Z,11.33
2024-03-12T00:58:11.304Z,11.28
2024-03-12T01:00:40.936Z,11.31
2024-03-12T01:03:12.943Z,11.25
2024-03-12T01:05:40.922Z,11.34
2024-03-12T01:08:09.396Z,11.36
2024-03-12T01:10:37.123Z,11.41
2024-03-12T01:13:07.706Z,11.30
2024-03-12T01:15:36.433Z,11.20
2024-03-12T01:18:05.000Z,11.21
2024-03-12T01:20:36.084Z,11.23
2024-03-12T01:23:05.874Z,11.17
2024-03-12T01:25:36.561Z,10.99
2024-03-12T01:28:06.341Z,10.99
2024-03-12T01:30:34.936Z,10.94
2024-03-12T01:33:03.744Z,10.90
2024-03-12T01:35:31.988Z,10.78
2024-03-12T01:37:59.709Z,10.86
2024-03-12T01:40:28.921Z,10.87
2024-03-12T01:43:02.280Z,10.94
2024-03-12T01:45:32.156Z,10.75
2024-03-12T01:48:04.829Z,10.79
2024-03-12T01:50:33.408Z,10.63
2024-03-12T01:53:01.111Z,10.71
2024-03-12T01:55:28.699Z,10.75
2024-03-12T01:57:56.129Z,10.74
2024-03-12T02:00:26.207Z,10.71
2024-03-12T02:02:54.170Z,10.70
2024-03-12T02:05:23.718Z,10.55
2024-03-12T02:07:52.392Z,10.39
2024-03-12T02:10:20.136Z,10.52
2024-03-12T02:12:48.287Z,10.64
2024-03-12T02:15:22.034Z,10.65
2024-03-12T02:17:55.371Z,10.82
2024-03-12T02:20:24.765Z,10.74
2024-03-12T02:22:55.861Z,10.73
2024-03-12T02:25:24.002Z,10.74
2024-03-12T02:27:53.390Z,10.79
2024-03-12T02:30:22.504Z,10.78
2024-03-12T02:32:50.793Z,10.73
2024-03-12T02:35:20.657Z,10.73
2024-03-12T02:37:47.631Z,10.69
2024-03-12T02:40:16.543Z,10.65
2024-03-12T02:42:45.510Z,10.67
2024-03-12T02:45:17.953Z,10.71
2024-03-12T02:47:47.482Z,10.74
2024-03-12T02:50:16.680Z,10.72
2024-03-12T02:52:46.103Z,10.77
2024-03-12T02:55:13.565Z,10.71
2024-03-12T02:57:40.721Z,10.72
2024-03-12T03:00:13.061Z,10.74
2024-03-12T03:02:42.468Z,10.67
2024-03-12T03:05:13.304Z,10.68
2024-03-12T03:07:42.079Z,10.70
2024-03-12T03:10:11.057Z,10.67
2024-03-12T03:12:39.099Z,10.64
2024-03-12T03:15:06.543Z,10.55
2024-03-12T03:17:35.510Z,10.50
2024-03-12T03:20:06.039Z,10.55
2024-03-12T03:22:33.541Z,10.44
2024-03-12T03:25:00.919Z,10.42
2024-03-12T03:27:28.568Z,10.54
2024-03-12T03:30:00.683Z,10.64
2024-03-12T03:32:27.744Z,10.60
2024-03-12T03:34:54.794Z,10.41
2024-03-12T03:37:22.058Z,10.48
2024-03-12T03:39:49.616Z,10.44
2024-03-12T03:42:18.367Z,10.34
2024-03-12T03:44:45.601Z,10.39
2024-03-12T03:47:12.588Z,10.38
2024-03-12T03:49:41.419Z,10.36
2024-03-12T03:52:08.836Z,10.24
2024-03-12T03:54:36.072Z,10.16
2024-03-12T03:57:03.172Z,10.30
2024-03-12T03:59:32.124Z,10.52
2024-03-12T04:01:59.329Z,10.59
2024-03-12T04:04:27.139Z,10.51
2024-03-12T04:06:55.366Z,10.49
2024-03-12T04:09:23.673Z,10.46
2024-03-12T04:11:51.056Z,10.30
2024-03-12T04:14:21.150Z,10.31
2024-03-12T04:16:48.192Z,10.37
2024-03-12T04:19:16.099Z,10.40
2024-03-12T04:21:45.042Z,10.31
2024-03-12T04:24:14.745Z,10.35
2024-03-12T04:26:46.508Z,10.29
2024-03-12T04:29:13.565Z,10.20
2024-03-12T04:31:40.921Z,10.19
2024-03-12T04:34:09.921Z,10.23
2024-03-12T04:36:42.159Z,10.12
2024-03-12T04:39:31.741Z,10.20
2024-03-12T04:42:06.384Z,10.21
2024-03-12T04:44:34.030Z,10.15
2024-03-12T04:47:01.254Z,10.15
2024-03-12T04:49:28.449Z,10.14
2024-03-12T04:51:56.949Z,10.11
2024-03-12T04:54:23.980Z,10.15
2024-03-12T04:56:53.949Z,10.18
2024-03-12T04:59:21.294Z,10.22
2024-03-12T05:01:50.299Z,10.44
2024-03-12T05:04:22.581Z,10.77
2024-03-12T05:06:51.057Z,11.06
2024-03-12T05:09:21.397Z,11.20
2024-03-12T05:11:49.249Z,11.09
2024-03-12T05:14:16.921Z,11.01
2024-03-12T05:16:44.912Z,11.24
2024-03-12T05:19:12.687Z,11.36
2024-03-12T05:21:40.363Z,11.37
2024-03-12T05:24:10.136Z,11.47
2024-03-12T05:26:45.169Z,11.34
2024-03-12T05:29:13.228Z,11.29
2024-03-12T05:31:41.567Z,11.46
2024-03-12T05:34:17.295Z,11.63
2024-03-12T05:36:52.892Z,11.54
2024-03-12T05:39:59.842Z,11.40
2024-03-12T05:42:46.142Z,11.51
2024-03-12T05:45:31.828Z,11.63
2024-03-12T05:48:11.437Z,11.55
2024-03-12T05:50:42.230Z,11.77
2024-03-12T05:53:10.082Z,11.89
2024-03-12T05:55:37.827Z,11.79
2024-03-12T05:58:06.009Z,11.87
2024-03-12T06:00:34.723Z,11.84
2024-03-12T06:03:04.623Z,11.82
2024-03-12T06:05:31.825Z,11.68
2024-03-12T06:08:08.437Z,11.75
2024-03-12T06:10:36.331Z,11.68
2024-03-12T06:13:03.459Z,11.77
2024-03-12T06:15:32.664Z,11.87
2024-03-12T06:18:00.545Z,11.73
2024-03-12T06:20:29.711Z,11.75
2024-03-12T06:22:57.052Z,11.99
2024-03-12T06:25:24.901Z,12.02
2024-03-12T06:27:53.473Z,12.18
2024-03-12T06:30:20.544Z,12.16
2024-03-12T06:32:48.292Z,12.14
2024-03-12T06:35:15.801Z,12.13
2024-03-12T06:37:44.470Z,11.99
2024-03-12T06:40:13.429Z,11.94
2024-03-12T06:42:42.798Z,11.90
2024-03-12T06:45:12.832Z,12.12
2024-03-12T06:47:42.691Z,12.16
2024-03-12T06:50:13.688Z,12.44
2024-03-12T06:52:42.730Z,12.37
2024-03-12T06:55:16.967Z,12.46
2024-03-12T06:57:53.088Z,12.57
2024-03-12T07:00:27.868Z,12.80
2024-03-12T07:02:55.238Z,12.78
2024-03-12T07:05:26.801Z,12.95
2024-03-12T07:07:55.116Z,13.17
2024-03-12T07:10:27.599Z,13.32
2024-03-12T07:12:56.774Z,13.30
2024-03-12T07:15:26.015Z,13.36
2024-03-12T07:17:54.456Z,13.47
2024-03-12T07:20:22.946Z,13.76
2024-03-12T07:22:50.310Z,13.87
2024-03-12T07:25:18.812Z,13.90
2024-03-12T07:27:45.954Z,14.00
2024-03-12T07:30:16.808Z,13.77
2024-03-12T07:32:48.597Z,13.91
2024-03-12T07:35:18.473Z,13.94
2024-03-12T07:37:47.152Z,13.85
2024-03-12T07:40:17.445Z,13.96
2024-03-12T07:42:45.551Z,13.79
2024-03-12T07:45:15.836Z,13.49
2024-03-12T07:47:43.574Z,13.73
2024-03-12T07:50:12.747Z,13.88
2024-03-12T07:52:40.793Z,13.84
2024-03-12T07:55:10.850Z,13.55
2024-03-12T07:57:39.713Z,13.60
2024-03-12T08:00:15.511Z,13.87
2024-03-12T08:02:43.796Z,13.71
2024-03-12T08:05:13.441Z,13.50
2024-03-12T08:07:51.798Z,13.63
2024-03-12T08:10:19.538Z,13.67
2024-03-12T08:12:46.791Z,13.72
2024-03-12T08:15:15.703Z,13.74
2024-03-12T08:17:45.552Z,13.70
2024-03-12T08:20:18.482Z,13.66
2024-03-12T08:22:48.635Z,13.83
2024-03-12T08:25:21.393Z,13.95
2024-03-12T08:27:50.005Z,13.97
2024-03-12T08:30:19.744Z,13.96
2024-03-12T08:32:46.928Z,13.74
2024-03-12T08:35:14.748Z,13.65
2024-03-12T08:37:43.215Z,13.60
2024-03-12T08:40:15.507Z,13.77
2024-03-12T08:42:50.583Z,13.91
2024-03-12T08:45:25.070Z,14.06
2024-03-12T08:47:52.631Z,14.10
2024-03-12T08:50:23.209Z,13.92
2024-03-12T08:52:51.826Z,13.70
2024-03-12T08:55:19.693Z,13.66
2024-03-12T08:57:48.076Z,13.69
2024-03-12T09:00:15.658Z,13.66
2024-03-12T09:02:43.493Z,13.67
2024-03-12T09:05:11.022Z,13.77
2024-03-12T09:07:38.489Z,13.80
2024-03-12T09:10:13.808Z,13.90
2024-03-12T09:12:44.325Z,13.91
2024-03-12T09:15:11.843Z,13.92
2024-03-12T09:17:39.724Z,13.68
2024-03-12T09:20:10.987Z,13.65
2024-03-12T09:22:38.847Z,13.76
2024-03-12T09:25:07.214Z,13.80
2024-03-12T09:27:35.040Z,13.73
2024-03-12T09:30:04.520Z,13.74
2024-03-12T09:32:31.721Z,13.75
2024-03-12T09:34:59.442Z,13.78
2024-03-12T09:37:28.354Z,13.79
2024-03-12T09:39:56.019Z,13.63
2024-03-12T09:42:26.053Z,13.57
2024-03-12T09:44:54.162Z,13.46
2024-03-12T09:47:21.790Z,13.64
2024-03-12T09:49:50.179Z,13.47
2024-03-12T09:52:18.562Z,13.43
2024-03-12T09:54:46.277Z,13.68
2024-03-12T09:57:14.384Z,13.72
2024-03-12T09:59:44.746Z,13.49
2024-03-12T10:02:16.058Z,12.93
2024-03-12T10:04:43.712Z,12.94
2024-03-12T10:07:13.297Z,13.19
2024-03-12T10:09:40.514Z,12.99
2024-03-12T10:12:10.142Z,12.76
2024-03-12T10:14:38.776Z,12.83
2024-03-12T10:17:15.558Z,13.08
2024-03-12T10:19:44.411Z,13.19
2024-03-12T10:22:18.379Z,13.22
2024-03-12T10:24:48.161Z,13.45
2024-03-12T10:27:16.952Z,13.36
2024-03-12T10:29:44.084Z,13.41
2024-03-12T10:32:22.560Z,13.59
2024-03-12T10:34:51.032Z,13.69
2024-03-12T10:37:36.424Z,13.35
2024-03-12T10:40:23.315Z,13.29
2024-03-12T10:42:55.760Z,13.40
2024-03-12T10:45:23.188Z,13.44
2024-03-12T10:47:50.858Z,13.26
2024-03-12T10:50:18.301Z,13.17
2024-03-12T10:52:46.473Z,13.03
2024-03-12T10:55:22.260Z,13.02
2024-03-12T10:57:51.050Z,12.72
2024-03-12T11:00:21.995Z,12.41
2024-03-12T11:03:03.437Z,12.39
2024-03-12T11:05:31.181Z,12.57
2024-03-12T11:07:59.303Z,12.71
2024-03-12T11:10:29.373Z,12.49
2024-03-12T11:13:02.144Z,12.16
2024-03-12T11:15:29.915Z,12.24
2024-03-12T11:17:57.363Z,12.05
2024-03-12T11:20:28.217Z,12.05
2024-03-12T11:23:01.353Z,12.06
2024-03-12T11:25:39.421Z,12.13
2024-03-12T11:28:23.595Z,12.23
2024-03-12T11:31:06.121Z,12.43
2024-03-12T11:33:57.708Z,12.50
2024-03-12T11:36:25.193Z,12.60
2024-03-12T11:38:53.165Z,12.36
2024-03-12T11:41:20.874Z,12.35
2024-03-12T11:43:48.906Z,12.30
2024-03-12T11:46:18.548Z,12.35
2024-03-12T11:48:47.202Z,12.61
2024-03-12T11:51:15.889Z,12.76
2024-03-12T11:53:46.194Z,12.65
2024-03-12T11:56:19.859Z,12.80
2024-03-12T11:58:57.547Z,12.79
2024-03-12T12:01:33.216Z,12.83
2024-03-12T12:04:02.804Z,13.07
2024-03-12T12:06:34.859Z,13.38
2024-03-12T12:09:06.580Z,13.66
2024-03-12T12:11:37.773Z,13.57
2024-03-12T12:14:09.967Z,13.42
2024-03-12T12:16:39.399Z,13.22
2024-03-12T12:19:13.479Z,12.89
2024-03-12T12:21:44.199Z,12.66
2024-03-12T12:24:12.382Z,12.54
2024-03-12T12:26:40.046Z,12.75
2024-03-12T12:29:13.680Z,12.90
2024-03-12T12:31:43.056Z,13.19
2024-03-12T12:34:11.732Z,13.38
2024-03-12T12:36:44.187Z,12.97
2024-03-12T12:39:13.298Z,13.02
2024-03-12T12:41:47.005Z,12.85
2024-03-12T12:44:18.993Z,12.70
2024-03-12T12:46:47.520Z,12.62
2024-03-12T12:49:18.646Z,12.63
2024-03-12T12:51:47.125Z,12.68
2024-03-12T12:54:19.864Z,12.65
2024-03-12T12:56:47.934Z,12.66
2024-03-12T12:59:18.066Z,12.61
2024-03-12T13:01:48.394Z,12.62
2024-03-12T13:04:28.024Z,12.40
2024-03-12T13:06:58.104Z,12.44
2024-03-12T13:09:34.312Z,12.36
2024-03-12T13:12:03.307Z,12.34
2024-03-12T13:14:31.006Z,12.20
2024-03-12T13:17:00.656Z,12.22
2024-03-12T13:19:29.123Z,12.10
2024-03-12T13:21:59.053Z,11.97
2024-03-12T13:24:30.449Z,12.04
2024-03-12T13:26:59.563Z,12.05
2024-03-12T13:29:27.393Z,12.02
2024-03-12T13:32:00.760Z,11.96
2024-03-12T13:34:46.120Z,11.97
2024-03-12T13:37:14.491Z,11.95
2024-03-12T13:39:43.367Z,11.94
2024-03-12T13:42:11.422Z,11.79
2024-03-12T13:44:38.517Z,11.64
2024-03-12T13:47:06.624Z,11.64
2024-03-12T13:49:34.146Z,11.67
2024-03-12T13:52:02.371Z,11.66
2024-03-12T13:54:29.704Z,11.75
2024-03-12T13:56:59.664Z,11.74
2024-03-12T13:59:27.396Z,11.78
2024-03-12T14:01:55.040Z,11.62
2024-03-12T14:04:24.503Z,11.71
2024-03-12T14:06:52.448Z,11.71
2024-03-12T14:09:19.629Z,11.69
2024-03-12T14:11:47.738Z,11.64
2024-03-12T14:14:16.055Z,11.55
2024-03-12T14:16:44.862Z,11.56
2024-03-12T14:19:12.788Z,11.53
2024-03-12T14:21:40.634Z,11.64
2024-03-12T14:24:07.860Z,11.83
2024-03-12T14:26:35.719Z,11.95
2024-03-12T14:29:02.755Z,11.93
2024-03-12T14:31:30.040Z,11.82
2024-03-12T14:33:59.004Z,11.59
2024-03-12T14:36:26.091Z,11.41
2024-03-12T14:38:57.213Z,11.47
2024-03-12T14:41:27.344Z,11.23
2024-03-12T14:43:54.867Z,11.30
2024-03-12T14:46:21.909Z,11.04
2024-03-12T14:48:53.519Z,11.22
2024-03-12T14:51:20.702Z,11.34
2024-03-12T14:53:47.964Z,11.49
2024-03-12T14:56:15.272Z,11.63
2024-03-12T14:58:43.049Z,11.78
2024-03-12T15:01:12.236Z,11.90
2024-03-12T15:03:40.833Z,11.96
2024-03-12T15:06:10.330Z,12.00
2024-03-12T15:08:38.372Z,12.02
2024-03-12T15:11:05.750Z,11.92
2024-03-12T15:13:34.834Z,12.00
2024-03-12T15:16:02.089Z,12.02
2024-03-12T15:18:31.029Z,12.06
2024-03-12T15:20:59.030Z,12.05
2024-03-12T15:23:26.132Z,11.87
2024-03-12T15:25:54.480Z,11.87
2024-03-12T15:28:21.527Z,11.87
2024-03-12T15:30:49.429Z,11.96
2024-03-12T15:33:17.238Z,12.04
2024-03-12T15:35:44.356Z,11.94
2024-03-12T15:38:11.386Z,11.80
2024-03-12T15:40:38.615Z,11.97
2024-03-12T15:43:06.708Z,11.96
2024-03-12T15:45:33.960Z,12.05
2024-03-12T15:48:01.517Z,12.22
2024-03-12T15:50:28.641Z,12.09
2024-03-12T15:52:55.765Z,12.00
2024-03-12T15:55:26.102Z,11.99
2024-03-12T15:57:55.030Z,11.73
2024-03-12T16:00:23.593Z,11.76
2024-03-12T16:02:55.440Z,11.80
2024-03-12T16:05:25.112Z,11.79
2024-03-12T16:07:53.852Z,11.66
2024-03-12T16:10:25.278Z,11.61
2024-03-12T16:12:53.233Z,11.63
2024-03-12T16:15:20.398Z,11.69
2024-03-12T16:17:48.211Z,11.67
2024-03-12T16:20:20.186Z,11.61
2024-03-12T16:22:47.783Z,11.62
2024-03-12T16:25:15.361Z,11.64
2024-03-12T16:27:46.489Z,11.36
2024-03-12T16:30:15.702Z,11.34
2024-03-12T16:32:45.049Z,11.34
2024-03-12T16:35:13.755Z,11.41
2024-03-12T16:37:44.868Z,11.43
2024-03-12T16:40:12.994Z,11.51
2024-03-12T16:42:43.604Z,11.56
2024-03-12T16:45:10.948Z,11.60
2024-03-12T16:47:38.256Z,11.53
2024-03-12T16:50:09.435Z,11.40
2024-03-12T16:52:47.318Z,11.26
2024-03-12T16:55:15.323Z,11.30
2024-03-12T16:57:44.423Z,11.20
2024-03-12T17:00:14.941Z,11.24
2024-03-12T17:02:45.788Z,11.16
2024-03-12T17:05:17.422Z,11.12
2024-03-12T17:07:50.684Z,11.14
2024-03-12T17:10:19.197Z,11.09
2024-03-12T17:12:48.053Z,11.03
2024-03-12T17:15:16.893Z,11.01
2024-03-12T17:17:44.377Z,10.98
2024-03-12T17:20:12.001Z,11.03
2024-03-12T17:22:40.559Z,11.04
2024-03-12T17:25:11.418Z,10.95
2024-03-12T17:27:42.389Z,10.78
2024-03-12T17:30:11.843Z,10.67
2024-03-12T17:32:59.195Z,10.56
2024-03-12T17:35:28.207Z,10.58
2024-03-12T17:37:59.349Z,10.44
2024-03-12T17:40:28.704Z,10.46
2024-03-12T17:42:56.284Z,10.48
2024-03-12T17:45:25.027Z,10.48
2024-03-12T17:47:53.437Z,10.41
2024-03-12T17:50:25.998Z,10.37
2024-03-12T17:52:54.906Z,10.26
2024-03-12T17:55:22.661Z,10.28
2024-03-12T17:57:52.314Z,10.32
2024-03-12T18:00:20.045Z,10.34
2024-03-12T18:02:49.425Z,10.28
2024-03-12T18:05:18.396Z,10.29
2024-03-12T18:07:49.326Z,10.31
2024-03-12T18:10:20.408Z,10.33
2024-03-12T18:12:48.394Z,10.23
2024-03-12T18:15:18.212Z,10.25
2024-03-12T18:17:46.784Z,10.23
2024-03-12T18:20:34.646Z,10.28
2024-03-12T18:23:01.914Z,10.28
2024-03-12T18:25:31.381Z,10.23
2024-03-12T18:27:59.083Z,10.16
2024-03-12T18:30:29.069Z,10.14
2024-03-12T18:32:56.226Z,10.07
2024-03-12T18:35:23.798Z,10.04
2024-03-12T18:37:53.634Z,10.02
2024-03-12T18:40:25.071Z,10.02
2024-03-12T18:42:52.616Z,9.94
2024-03-12T18:45:23.911Z,9.96
2024-03-12T18:47:52.086Z,9.99
2024-03-12T18:50:21.083Z,9.99
2024-03-12T18:52:48.566Z,9.96
2024-03-12T18:55:18.184Z,9.87
2024-03-12T18:57:46.675Z,9.91
2024-03-12T19:00:21.296Z,9.90
2024-03-12T19:03:05.426Z,9.86
2024-03-12T19:05:35.271Z,9.86
2024-03-12T19:08:03.473Z,9.81
2024-03-12T19:10:31.148Z,9.87
2024-03-12T19:13:01.235Z,9.85
2024-03-12T19:15:38.093Z,9.88
2024-03-12T19:18:14.572Z,9.83
2024-03-12T19:20:42.782Z,9.87
2024-03-12T19:23:10.913Z,9.87
2024-03-12T19:25:38.402Z,9.87
2024-03-12T19:28:06.111Z,9.87
2024-03-12T19:30:34.381Z,9.85
2024-03-12T19:33:04.115Z,9.84
2024-03-12T19:35:32.319Z,9.81
2024-03-12T19:37:59.595Z,9.81
2024-03-12T19:40:27.554Z,9.85
2024-03-12T19:42:56.291Z,9.83
2024-03-12T19:45:27.386Z,9.87
2024-03-12T19:47:57.382Z,9.87
2024-03-12T19:50:28.144Z,9.87
2024-03-12T19:52:57.750Z,9.86
2024-03-12T19:55:26.118Z,9.86
2024-03-12T19:57:57.492Z,9.83
2024-03-12T20:00:44.403Z,9.85
2024-03-12T20:03:13.834Z,9.86
2024-03-12T20:05:41.693Z,9.88
2024-03-12T20:08:10.526Z,9.87
2024-03-12T20:10:38.325Z,9.81
2024-03-12T20:13:06.707Z,9.81
2024-03-12T20:15:34.262Z,9.84
2024-03-12T20:18:02.072Z,9.81
2024-03-12T20:20:29.929Z,9.78
2024-03-12T20:22:59.600Z,9.72
2024-03-12T20:25:27.401Z,9.69
2024-03-12T20:27:55.482Z,9.69
2024-03-12T20:30:29.057Z,9.68
2024-03-12T20:33:00.050Z,9.63
2024-03-12T20:35:30.919Z,9.67
2024-03-12T20:37:58.755Z,9.70
2024-03-12T20:40:28.713Z,9.64
2024-03-12T20:42:59.690Z,9.57
2024-03-12T20:45:27.321Z,9.48
2024-03-12T20:47:55.345Z,9.45
2024-03-12T20:50:22.573Z,9.39
2024-03-12T20:52:51.080Z,9.39
2024-03-12T20:55:19.398Z,9.37
2024-03-12T20:57:48.944Z,9.28
2024-03-12T21:00:19.301Z,9.23
2024-03-12T21:02:52.559Z,9.23
2024-03-12T21:05:19.986Z,9.23
2024-03-12T21:07:47.477Z,9.15
2024-03-12T21:10:15.995Z,9.15
2024-03-12T21:12:43.918Z,9.12
2024-03-12T21:15:16.998Z,9.15
2024-03-12T21:17:45.648Z,9.16
2024-03-12T21:20:23.026Z,9.13
2024-03-12T21:22:50.760Z,9.11
2024-03-12T21:25:19.002Z,9.10
2024-03-12T21:27:46.538Z,9.09
2024-03-12T21:30:17.392Z,9.04
2024-03-12T21:32:48.614Z,9.04
2024-03-12T21:35:16.710Z,9.06
2024-03-12T21:37:43.796Z,9.06
2024-03-12T21:40:14.189Z,9.07
2024-03-12T21:42:44.675Z,9.08
2024-03-12T21:45:12.372Z,9.06
2024-03-12T21:47:41.332Z,9.10
2024-03-12T21:50:15.718Z,9.10
2024-03-12T21:52:44.001Z,9.09
2024-03-12T21:55:12.125Z,9.08
2024-03-12T21:57:40.777Z,9.08
2024-03-12T22:00:24.918Z,9.08
2024-03-12T22:02:52.296Z,9.10
2024-03-12T22:05:21.192Z,9.14
2024-03-12T22:07:50.482Z,9.12
2024-03-12T22:10:18.143Z,9.16
2024-03-12T22:12:45.210Z,9.20
2024-03-12T22:15:13.267Z,9.23
2024-03-12T22:17:43.462Z,9.27
2024-03-12T22:20:19.198Z,9.23
2024-03-12T22:22:50.329Z,9.22
2024-03-12T22:25:19.227Z,9.21
2024-03-12T22:27:47.264Z,9.23
2024-03-12T22:30:17.248Z,9.27
2024-03-12T22:32:45.577Z,9.15
2024-03-12T22:35:13.083Z,9.09
2024-03-12T22:37:43.378Z,9.02
2024-03-12T22:40:13.366Z,9.09
2024-03-12T22:42:41.037Z,9.11
2024-03-12T22:45:10.094Z,9.11
2024-03-12T22:47:40.093Z,9.18
2024-03-12T22:50:09.006Z,9.10
2024-03-12T22:52:36.813Z,9.09
2024-03-12T22:55:04.330Z,9.10
2024-03-12T22:57:36.215Z,9.19
2024-03-12T23:00:11.387Z,9.09
2024-03-12T23:02:42.161Z,9.05
2024-03-12T23:05:09.767Z,8.99
2024-03-12T23:07:36.832Z,9.03
2024-03-12T23:10:04.552Z,8.95
2024-03-12T23:12:31.611Z,8.99
2024-03-12T23:14:58.586Z,8.97
2024-03-12T23:17:26.555Z,8.97
2024-03-12T23:19:54.735Z,8.98
2024-03-12T23:22:21.902Z,8.95
2024-03-12T23:24:50.543Z,8.94
2024-03-12T23:27:17.594Z,8.94
2024-03-12T23:29:45.060Z,8.93
2024-03-12T23:32:16.144Z,8.90
2024-03-12T23:34:43.149Z,8.90
2024-03-12T23:37:10.285Z,8.88
2024-03-12T23:39:38.431Z,8.86
2024-03-12T23:42:06.042Z,8.79
2024-03-12T23:44:36.150Z,8.77
2024-03-12T23:47:05.072Z,8.75
2024-03-12T23:49:33.727Z,8.75
2024-03-12T23:52:00.965Z,8.73
2024-03-12T23:54:30.722Z,8.72
2024-03-12T23:56:58.767Z,8.71
2024-03-12T23:59:25.753Z,8.75
